Great Bend, KS

3:27 AM CST on January 21, 2018 (GMT -0600)
Great Bend Municipal

Weather History for KGBD - July, 2013

Change the Weather History Date:

Tuesday, July 16, 2013

  Actual Average Record
Temperature  
Mean Temperature 75 °F -  
Max Temperature 86 °F 93 °F 107 °F (2011)
Min Temperature 64 °F 68 °F 58 °F (1953)
Cooling Degree Days 10    
Growing Degree Days 25 (Base 50)    
Moisture  
Dew Point 63 °F    
Average Humidity 73    
Maximum Humidity 88    
Minimum Humidity 43    
Precipitation  
Precipitation 0.19 in - - ()
Sea Level Pressure  
Sea Level Pressure 30.23 in    
Wind  
Wind Speed 10 mph (SSE)    
Max Wind Speed 18 mph    
Max Gust Speed 24 mph    
Visibility 10 miles    
Events      
Averages and records for this station are not official NWS values.
T = Trace of Precipitation, MM = Missing Value Source: NWS Daily Summary

Daily Weather History Graph

Daily Weather History Graph

Search for Another Location

Airport or City:

Trip Planner

Search our weather history database for the weather conditions in past years. The results will help you decide how hot, cold, wet, or windy it might be!

Date:

Astronomy

Jul. 16, 2013 Rise Set
Actual Time 6:24 AM CDT 8:57 PM CDT
Civil Twilight 5:54 AM CDT 9:28 PM CDT
Nautical Twilight 5:16 AM CDT 10:06 PM CDT
Astronomical Twilight 4:33 AM CDT 10:48 PM CDT
Moon 2:43 PM CDT (7/16) 12:53 AM CDT (7/16)
Length of Visible Light 15h 34m
Length of Day
14h 32m
First Quarter, 56% of the Moon is Illuminated
Jul 16
First Quarter
Jul 22
Full
Jul 29
Last Quarter
Aug 6
New
Aug 14
First Quarter

Hourly Weather History & Observations

Time (CDT) Temp. Heat Index Dew Point Humidity Pressure Visibility Wind Dir Wind Speed Gust Speed Precip Events Conditions
12:15 AM 66.2 °F - 60.8 °F 83% 30.19 in 10.0 mi SE 10.4 mph - N/A   Scattered Clouds
12:35 AM 66.2 °F - 60.8 °F 83% 30.20 in 10.0 mi SE 9.2 mph - N/A   Clear
12:55 AM 66.2 °F - 60.8 °F 83% 30.20 in 10.0 mi SE 9.2 mph - N/A   Scattered Clouds
1:15 AM 64.4 °F - 60.8 °F 88% 30.20 in 10.0 mi SE 9.2 mph - N/A   Partly Cloudy
1:35 AM 64.4 °F - 60.8 °F 88% 30.20 in 10.0 mi SE 9.2 mph - N/A   Clear
1:55 AM 64.4 °F - 60.8 °F 88% 30.21 in 10.0 mi SE 8.1 mph - N/A   Clear
2:15 AM 64.4 °F - 60.8 °F 88% 30.20 in 10.0 mi SE 11.5 mph - N/A   Mostly Cloudy
2:35 AM 66.2 °F - 60.8 °F 83% 30.20 in 10.0 mi SE 10.4 mph - N/A   Overcast
2:55 AM 66.2 °F - 62.6 °F 88% 30.20 in 10.0 mi SE 8.1 mph - N/A   Overcast
3:15 AM 66.2 °F - 62.6 °F 88% 30.18 in 10.0 mi SE 8.1 mph - N/A   Overcast
3:35 AM 64.4 °F - 60.8 °F 88% 30.19 in 10.0 mi SE 9.2 mph - N/A   Scattered Clouds
3:55 AM 64.4 °F - 60.8 °F 88% 30.19 in 10.0 mi SE 8.1 mph - N/A   Partly Cloudy
4:15 AM 64.4 °F - 60.8 °F 88% 30.19 in 10.0 mi SE 6.9 mph - N/A   Partly Cloudy
4:35 AM 64.4 °F - 60.8 °F 88% 30.20 in 10.0 mi SSE 5.8 mph - N/A   Mostly Cloudy
4:55 AM 64.4 °F - 60.8 °F 88% 30.20 in 9.0 mi SE 9.2 mph - N/A   Overcast
5:15 AM 64.4 °F - 60.8 °F 88% 30.20 in 8.0 mi SE 9.2 mph - N/A   Overcast
5:35 AM 64.4 °F - 60.8 °F 88% 30.20 in 9.0 mi SE 8.1 mph - N/A   Overcast
5:55 AM 64.4 °F - 60.8 °F 88% 30.20 in 8.0 mi SSE 10.4 mph - N/A   Overcast
6:15 AM 64.4 °F - 60.8 °F 88% 30.21 in 10.0 mi SE 9.2 mph - N/A   Overcast
6:35 AM 66.2 °F - 62.6 °F 88% 30.21 in 9.0 mi SSE 6.9 mph - N/A   Overcast
6:55 AM 66.2 °F - 62.6 °F 88% 30.22 in 9.0 mi SE 9.2 mph - N/A   Overcast
7:15 AM 66.2 °F - 62.6 °F 88% 30.23 in 9.0 mi SSE 10.4 mph - N/A   Overcast
7:35 AM 66.2 °F - 62.6 °F 88% 30.24 in 9.0 mi SSE 8.1 mph - N/A   Overcast
7:55 AM 66.2 °F - 62.6 °F 88% 30.25 in 9.0 mi SSE 9.2 mph - N/A   Overcast
8:15 AM 66.2 °F - 62.6 °F 88% 30.25 in 9.0 mi SE 10.4 mph - N/A   Overcast
8:35 AM 68.0 °F - 62.6 °F 83% 30.26 in 10.0 mi SSE 11.5 mph 17.3 mph N/A   Overcast
8:55 AM 69.8 °F - 62.6 °F 78% 30.26 in 10.0 mi SSE 13.8 mph - N/A   Mostly Cloudy
9:15 AM 69.8 °F - 62.6 °F 78% 30.26 in 10.0 mi SSE 10.4 mph - N/A   Scattered Clouds
9:35 AM 69.8 °F - 62.6 °F 78% 30.26 in 10.0 mi SSE 13.8 mph - N/A   Scattered Clouds
9:55 AM 71.6 °F - 62.6 °F 73% 30.26 in 10.0 mi SSE 16.1 mph - N/A   Scattered Clouds
10:15 AM 73.4 °F - 64.4 °F 73% 30.26 in 10.0 mi SSE 13.8 mph - N/A   Mostly Cloudy
10:35 AM 75.2 °F - 64.4 °F 69% 30.26 in 10.0 mi SSE 12.7 mph - N/A   Mostly Cloudy
10:55 AM 75.2 °F - 64.4 °F 69% 30.26 in 10.0 mi SE 13.8 mph - N/A   Overcast
11:15 AM 75.2 °F - 62.6 °F 65% 30.26 in 10.0 mi SSE 13.8 mph - N/A   Overcast
11:35 AM 78.8 °F - 64.4 °F 61% 30.27 in 10.0 mi SSE 12.7 mph - N/A   Mostly Cloudy
11:55 AM 78.8 °F - 64.4 °F 61% 30.26 in 10.0 mi SE 17.3 mph - N/A   Mostly Cloudy
12:15 PM 78.8 °F - 64.4 °F 61% 30.26 in 10.0 mi South 11.5 mph - N/A   Overcast
12:35 PM 78.8 °F - 64.4 °F 61% 30.26 in 10.0 mi SSE 13.8 mph 20.7 mph N/A   Mostly Cloudy
12:55 PM 80.6 °F 81.8 °F 62.6 °F 54% 30.26 in 10.0 mi South 12.7 mph - N/A   Mostly Cloudy
1:15 PM 80.6 °F 82.3 °F 64.4 °F 58% 30.26 in 10.0 mi SSE 13.8 mph - N/A   Mostly Cloudy
1:35 PM 80.6 °F 82.3 °F 64.4 °F 58% 30.25 in 10.0 mi SSE 13.8 mph 19.6 mph N/A   Mostly Cloudy
1:55 PM 80.6 °F 81.8 °F 62.6 °F 54% 30.25 in 10.0 mi SSE 16.1 mph - N/A   Scattered Clouds
2:15 PM 82.4 °F 83.9 °F 64.4 °F 54% 30.24 in 10.0 mi SSE 16.1 mph 24.2 mph N/A   Scattered Clouds
2:35 PM 80.6 °F 82.3 °F 64.4 °F 58% 30.24 in 10.0 mi South 9.2 mph - N/A   Mostly Cloudy
2:55 PM 80.6 °F 81.8 °F 62.6 °F 54% 30.23 in 10.0 mi SSE 12.7 mph 19.6 mph N/A   Overcast
3:15 PM 82.4 °F 83.9 °F 64.4 °F 54% 30.22 in 10.0 mi South 11.5 mph - N/A   Scattered Clouds
3:35 PM 84.2 °F 85.0 °F 62.6 °F 48% 30.22 in 10.0 mi SE 17.3 mph 21.9 mph N/A   Partly Cloudy
3:55 PM 84.2 °F 85.0 °F 62.6 °F 48% 30.21 in 10.0 mi SSE 15.0 mph 23.0 mph N/A   Scattered Clouds
4:15 PM 86.0 °F 86.6 °F 62.6 °F 45% 30.20 in 10.0 mi SSE 16.1 mph 24.2 mph N/A   Partly Cloudy
4:35 PM 84.2 °F 85.0 °F 62.6 °F 48% 30.20 in 10.0 mi SSE 16.1 mph 24.2 mph N/A   Scattered Clouds
4:55 PM 86.0 °F 86.1 °F 60.8 °F 43% 30.20 in 10.0 mi SSE 18.4 mph - N/A   Mostly Cloudy
5:15 PM 84.2 °F 85.0 °F 62.6 °F 48% 30.21 in 10.0 mi SSE 16.1 mph 24.2 mph N/A   Mostly Cloudy
5:35 PM 84.2 °F 85.0 °F 62.6 °F 48% 30.21 in 10.0 mi SSE 13.8 mph - N/A   Mostly Cloudy
5:55 PM 84.2 °F 85.0 °F 62.6 °F 48% 30.21 in 10.0 mi South 11.5 mph - N/A   Mostly Cloudy
6:15 PM 84.2 °F 85.0 °F 62.6 °F 48% 30.21 in 10.0 mi SSE 12.7 mph - N/A   Scattered Clouds
6:35 PM 84.2 °F 85.0 °F 62.6 °F 48% 30.21 in 10.0 mi South 13.8 mph - N/A   Mostly Cloudy
6:55 PM 82.4 °F 83.4 °F 62.6 °F 51% 30.21 in 10.0 mi South 12.7 mph - N/A   Overcast
7:15 PM 78.8 °F - 64.4 °F 61% 30.21 in 10.0 mi SW 11.5 mph - N/A   Scattered Clouds
7:35 PM 75.2 °F - 64.4 °F 69% 30.22 in 10.0 mi SW 5.8 mph - N/A   Partly Cloudy
7:55 PM 78.8 °F - 64.4 °F 61% 30.22 in 10.0 mi SSW 5.8 mph - N/A   Mostly Cloudy
8:15 PM 73.4 °F - 64.4 °F 73% 30.24 in 10.0 mi West 12.7 mph 18.4 mph N/A   Mostly Cloudy
8:35 PM 71.6 °F - 64.4 °F 78% 30.24 in 10.0 mi West 9.2 mph - N/A   Scattered Clouds
8:55 PM 71.6 °F - 64.4 °F 78% 30.26 in 10.0 mi WSW 4.6 mph - N/A   Overcast
9:15 PM 71.6 °F - 64.4 °F 78% 30.27 in 10.0 mi SSE 10.4 mph - N/A   Overcast
9:35 PM 69.8 °F - 66.2 °F 88% 30.28 in 5.0 mi SSE 3.5 mph - 0.17 in   Overcast
9:55 PM 69.8 °F - 66.2 °F 88% 30.27 in 10.0 mi SW 3.5 mph - 0.18 in   Mostly Cloudy
10:15 PM 69.8 °F - 66.2 °F 88% 30.28 in 10.0 mi NW 3.5 mph - N/A   Mostly Cloudy
10:35 PM 69.8 °F - 66.2 °F 88% 30.30 in 10.0 mi West 3.5 mph - 0.01 in   Mostly Cloudy
10:55 PM 69.8 °F - 66.2 °F 88% 30.31 in 10.0 mi SSW 4.6 mph - 0.01 in   Mostly Cloudy
11:15 PM 69.8 °F - 66.2 °F 88% 30.32 in 10.0 mi SE 5.8 mph - N/A   Mostly Cloudy
11:35 PM 69.8 °F - 66.2 °F 88% 30.31 in 10.0 mi SSE 3.5 mph - N/A   Partly Cloudy
11:55 PM 69.8 °F - 66.2 °F 88% 30.30 in 10.0 mi Calm Calm - N/A   Clear